createdAt,value
2018-08-19T00:00:43.528Z,17.68
2018-08-19T00:03:12.609Z,17.64
2018-08-19T00:05:41.357Z,17.56
2018-08-19T00:08:10.890Z,17.47
2018-08-19T00:11:15.473Z,17.41
2018-08-19T00:13:44.504Z,17.35
2018-08-19T00:16:13.529Z,17.24
2018-08-19T00:18:42.359Z,17.22
2018-08-19T00:21:12.229Z,17.21
2018-08-19T00:23:45.949Z,17.14
2018-08-19T00:26:16.028Z,17.10
2018-08-19T00:28:44.673Z,17.06
2018-08-19T00:31:13.834Z,16.99
2018-08-19T00:33:42.850Z,16.94
2018-08-19T00:36:25.193Z,16.86
2018-08-19T00:38:55.156Z,16.79
2018-08-19T00:41:23.808Z,16.77
2018-08-19T00:43:53.985Z,16.78
2018-08-19T00:46:30.333Z,16.85
2018-08-19T00:48:59.918Z,16.77
2018-08-19T00:51:29.136Z,16.73
2018-08-19T00:53:58.289Z,16.73
2018-08-19T00:56:27.294Z,16.76
2018-08-19T00:58:56.800Z,16.80
2018-08-19T01:01:36.666Z,16.81
2018-08-19T01:04:08.478Z,16.75
2018-08-19T01:07:08.904Z,16.67
2018-08-19T01:09:37.528Z,16.66
2018-08-19T01:12:06.761Z,16.68
2018-08-19T01:14:36.126Z,16.58
2018-08-19T01:17:06.439Z,16.52
2018-08-19T01:19:35.446Z,16.50
2018-08-19T01:22:04.299Z,16.48
2018-08-19T01:24:34.170Z,16.43
2018-08-19T01:27:03.751Z,16.35
2018-08-19T01:29:49.896Z,16.30
2018-08-19T01:32:19.786Z,16.22
2018-08-19T01:34:48.391Z,16.21
2018-08-19T01:37:17.155Z,16.24
2018-08-19T01:39:47.405Z,16.22
2018-08-19T01:42:15.989Z,16.15
2018-08-19T01:44:44.773Z,16.10
2018-08-19T01:47:13.505Z,16.13
2018-08-19T01:49:42.351Z,16.12
2018-08-19T01:52:12.439Z,16.07
2018-08-19T01:54:41.080Z,16.09
2018-08-19T01:57:10.468Z,16.03
2018-08-19T01:59:39.053Z,15.96
2018-08-19T02:02:08.305Z,15.92
2018-08-19T02:04:46.114Z,15.91
2018-08-19T02:07:16.850Z,15.93
2018-08-19T02:09:59.830Z,15.93
2018-08-19T02:12:36.236Z,15.90
2018-08-19T02:15:06.109Z,15.92
2018-08-19T02:17:43.054Z,15.98
2018-08-19T02:20:12.430Z,15.98
2018-08-19T02:22:45.631Z,16.01
2018-08-19T02:25:14.768Z,16.06
2018-08-19T02:27:44.044Z,16.03
2018-08-19T02:30:14.264Z,16.00
2018-08-19T02:32:42.956Z,16.00
2018-08-19T02:35:12.572Z,15.99
2018-08-19T02:37:41.839Z,16.03
2018-08-19T02:40:13.982Z,16.02
2018-08-19T02:42:43.021Z,15.99
2018-08-19T02:45:11.820Z,15.95
2018-08-19T02:47:40.515Z,15.87
2018-08-19T02:50:09.261Z,15.88
2018-08-19T02:52:38.176Z,15.81
2018-08-19T02:55:08.285Z,15.80
2018-08-19T02:57:39.403Z,15.78
2018-08-19T03:00:09.354Z,15.77
2018-08-19T03:02:39.884Z,15.72
2018-08-19T03:05:14.315Z,15.70
2018-08-19T03:07:43.840Z,15.63
2018-08-19T03:10:14.466Z,15.61
2018-08-19T03:12:43.643Z,15.57
2018-08-19T03:15:14.323Z,15.52
2018-08-19T03:17:44.559Z,15.43
2018-08-19T03:20:14.114Z,15.40
2018-08-19T03:22:45.126Z,15.40
2018-08-19T03:25:13.680Z,15.38
2018-08-19T03:27:42.235Z,15.35
2018-08-19T03:30:13.883Z,15.32
2018-08-19T03:32:49.842Z,15.35
2018-08-19T03:35:19.920Z,15.31
2018-08-19T03:37:51.683Z,15.33
2018-08-19T03:40:20.867Z,15.29
2018-08-19T03:42:49.577Z,15.23
2018-08-19T03:45:20.202Z,15.25
2018-08-19T03:47:50.330Z,15.25
2018-08-19T03:50:20.343Z,15.25
2018-08-19T03:52:49.235Z,15.33
2018-08-19T03:55:24.021Z,15.38
2018-08-19T03:57:53.370Z,15.33
2018-08-19T04:00:22.296Z,15.32
2018-08-19T04:02:51.077Z,15.35
2018-08-19T04:05:53.200Z,15.36
2018-08-19T04:08:22.102Z,15.33
2018-08-19T04:10:52.290Z,15.26
2018-08-19T04:13:30.824Z,15.28
2018-08-19T04:16:03.524Z,15.33
2018-08-19T04:18:38.011Z,15.34
2018-08-19T04:21:09.599Z,15.33
2018-08-19T04:23:41.042Z,15.31
2018-08-19T04:26:09.669Z,15.35
2018-08-19T04:28:40.374Z,15.36
2018-08-19T04:31:24.955Z,15.38
2018-08-19T04:33:54.531Z,15.40
2018-08-19T04:36:24.892Z,15.40
2018-08-19T04:38:53.664Z,15.42
2018-08-19T04:41:22.527Z,15.45
2018-08-19T04:43:51.259Z,15.48
2018-08-19T04:46:22.912Z,15.51
2018-08-19T04:48:52.523Z,15.48
2018-08-19T04:51:21.346Z,15.48
2018-08-19T04:53:49.995Z,15.53
2018-08-19T04:56:19.774Z,15.63
2018-08-19T04:58:48.509Z,15.72
2018-08-19T05:01:17.887Z,15.84
2018-08-19T05:03:47.504Z,15.99
2018-08-19T05:06:16.755Z,16.12
2018-08-19T05:08:47.906Z,16.31
2018-08-19T05:11:16.567Z,16.49
2018-08-19T05:13:45.300Z,16.69
2018-08-19T05:16:13.905Z,16.83
2018-08-19T05:18:51.350Z,16.90
2018-08-19T05:21:20.587Z,17.08
2018-08-19T05:23:49.406Z,17.31
2018-08-19T05:26:17.996Z,17.51
2018-08-19T05:28:59.470Z,17.57
2018-08-19T05:31:28.153Z,17.56
2018-08-19T05:33:57.537Z,17.56
2018-08-19T05:36:31.969Z,17.55
2018-08-19T05:39:02.309Z,17.57
2018-08-19T05:41:31.670Z,17.55
2018-08-19T05:44:00.366Z,17.63
2018-08-19T05:46:29.946Z,17.79
2018-08-19T05:49:04.396Z,18.01
2018-08-19T05:51:33.269Z,18.26
2018-08-19T05:54:02.001Z,18.39
2018-08-19T05:56:30.871Z,18.64
2018-08-19T05:59:01.169Z,18.93
2018-08-19T06:01:32.025Z,19.27
2018-08-19T06:04:01.409Z,19.77
2018-08-19T06:06:30.687Z,20.22
2018-08-19T06:08:59.556Z,20.37
2018-08-19T06:11:29.159Z,20.64
2018-08-19T06:13:57.795Z,20.82
2018-08-19T06:16:26.489Z,20.99
2018-08-19T06:18:55.917Z,21.22
2018-08-19T06:21:24.581Z,21.44
2018-08-19T06:23:53.311Z,21.59
2018-08-19T06:26:26.826Z,21.78
2018-08-19T06:28:55.580Z,22.33
2018-08-19T06:31:24.756Z,22.57
2018-08-19T06:33:54.035Z,22.23
2018-08-19T06:36:23.382Z,21.93
2018-08-19T06:38:52.407Z,21.39
2018-08-19T06:41:21.066Z,21.04
2018-08-19T06:43:49.908Z,20.60
2018-08-19T06:46:18.742Z,20.53
2018-08-19T06:48:47.981Z,20.28
2018-08-19T06:51:16.711Z,20.16
2018-08-19T06:53:45.726Z,20.06
2018-08-19T06:56:15.182Z,20.13
2018-08-19T06:58:44.195Z,20.31
2018-08-19T07:01:14.013Z,20.41
2018-08-19T07:03:46.910Z,20.56
2018-08-19T07:06:15.673Z,20.70
2018-08-19T07:08:44.651Z,21.26
2018-08-19T07:11:13.307Z,22.22
2018-08-19T07:13:42.142Z,23.26
2018-08-19T07:16:11.756Z,24.19
2018-08-19T07:18:40.649Z,25.62
2018-08-19T07:21:09.209Z,26.57
2018-08-19T07:23:38.472Z,26.97
2018-08-19T07:26:07.612Z,27.27
2018-08-19T07:28:36.777Z,28.00
2018-08-19T07:31:06.016Z,28.02
2018-08-19T07:33:35.867Z,28.35
2018-08-19T07:36:05.491Z,28.24
2018-08-19T07:38:34.093Z,27.57
2018-08-19T07:41:03.059Z,26.84
2018-08-19T07:43:33.549Z,27.86
2018-08-19T07:46:02.817Z,28.80
2018-08-19T07:48:31.826Z,29.39
2018-08-19T07:51:00.583Z,29.13
2018-08-19T07:53:29.205Z,28.45
2018-08-19T07:55:58.422Z,27.78
2018-08-19T07:58:42.364Z,27.55
2018-08-19T08:01:11.913Z,27.54
2018-08-19T08:03:40.669Z,27.62
2018-08-19T08:06:09.768Z,27.12
2018-08-19T08:08:38.620Z,27.29
2018-08-19T08:11:07.287Z,28.00
2018-08-19T08:13:36.627Z,28.33
2018-08-19T08:16:06.342Z,29.34
2018-08-19T08:18:34.978Z,30.71
2018-08-19T08:21:12.618Z,32.03
2018-08-19T08:23:42.088Z,32.74
2018-08-19T08:26:10.698Z,32.93
2018-08-19T08:28:39.623Z,32.45
2018-08-19T08:31:10.179Z,32.58
2018-08-19T08:33:40.386Z,32.82
2018-08-19T08:36:10.885Z,32.50
2018-08-19T08:38:41.642Z,32.78
2018-08-19T08:41:10.586Z,33.27
2018-08-19T08:43:39.564Z,34.62
2018-08-19T08:46:08.230Z,35.28
2018-08-19T08:48:37.324Z,36.16
2018-08-19T08:51:06.095Z,36.70
2018-08-19T08:53:39.921Z,36.79
2018-08-19T08:56:08.833Z,37.79
2018-08-19T08:58:38.342Z,37.71
2018-08-19T09:01:08.373Z,37.88
2018-08-19T09:03:37.987Z,37.89
2018-08-19T09:06:15.661Z,37.78
2018-08-19T09:08:44.807Z,34.77
2018-08-19T09:11:15.083Z,33.09
2018-08-19T09:13:44.584Z,32.03
2018-08-19T09:16:13.304Z,31.47
2018-08-19T09:18:42.254Z,31.97
2018-08-19T09:21:12.231Z,32.69
2018-08-19T09:23:40.987Z,33.75
2018-08-19T09:26:10.422Z,34.20
2018-08-19T09:28:40.079Z,36.75
2018-08-19T09:31:09.763Z,38.68
2018-08-19T09:33:38.396Z,38.32
2018-08-19T09:36:07.088Z,38.91
2018-08-19T09:38:36.663Z,39.05
2018-08-19T09:41:05.557Z,38.95
2018-08-19T09:43:35.007Z,39.54
2018-08-19T09:46:03.649Z,39.83
2018-08-19T09:48:32.292Z,39.98
2018-08-19T09:51:06.329Z,39.68
2018-08-19T09:53:36.544Z,40.62
2018-08-19T09:56:09.942Z,40.79
2018-08-19T09:58:39.217Z,41.84
2018-08-19T10:01:14.951Z,40.77
2018-08-19T10:03:45.143Z,40.96
2018-08-19T10:06:14.382Z,42.28
2018-08-19T10:08:43.219Z,42.93
2018-08-19T10:11:12.110Z,43.66
2018-08-19T10:13:40.947Z,43.13
2018-08-19T10:16:09.704Z,41.67
2018-08-19T10:18:38.503Z,42.95
2018-08-19T10:21:14.198Z,43.29
2018-08-19T10:23:44.092Z,43.01
2018-08-19T10:26:14.217Z,44.29
2018-08-19T10:28:42.976Z,44.21
2018-08-19T10:31:17.276Z,44.37
2018-08-19T10:33:45.936Z,44.66
2018-08-19T10:36:14.623Z,45.45
2018-08-19T10:38:43.278Z,45.30
2018-08-19T10:41:12.344Z,45.12
2018-08-19T10:43:41.344Z,45.79
2018-08-19T10:46:10.137Z,45.38
2018-08-19T10:48:39.631Z,45.74
2018-08-19T10:51:08.337Z,46.33
2018-08-19T10:53:37.978Z,45.50
2018-08-19T10:56:06.607Z,45.81
2018-08-19T10:58:35.693Z,46.10
2018-08-19T11:01:03.542Z,45.95
2018-08-19T11:03:33.052Z,46.28
2018-08-19T11:06:02.897Z,45.48
2018-08-19T11:08:31.678Z,45.70
2018-08-19T11:11:00.983Z,46.28
2018-08-19T11:13:30.913Z,46.79
2018-08-19T11:16:01.273Z,47.22
2018-08-19T11:18:35.429Z,46.98
2018-08-19T11:21:10.308Z,47.35
2018-08-19T11:23:41.109Z,48.52
2018-08-19T11:26:11.064Z,47.91
2018-08-19T11:28:43.145Z,48.60
2018-08-19T11:31:16.681Z,48.71
2018-08-19T11:33:45.530Z,48.64
2018-08-19T11:36:13.972Z,47.58
2018-08-19T11:38:46.741Z,47.07
2018-08-19T11:41:16.105Z,47.85
2018-08-19T11:43:46.224Z,48.39
2018-08-19T11:46:15.431Z,48.21
2018-08-19T11:48:45.129Z,48.55
2018-08-19T11:51:13.863Z,48.21
2018-08-19T11:53:41.696Z,48.53
2018-08-19T11:56:10.319Z,47.88
2018-08-19T11:58:40.668Z,48.27
2018-08-19T12:01:13.032Z,48.36
2018-08-19T12:03:56.479Z,48.09
2018-08-19T12:06:27.410Z,48.38
2018-08-19T12:08:58.113Z,48.21
2018-08-19T12:11:29.653Z,48.77
2018-08-19T12:13:57.398Z,48.55
2018-08-19T12:16:27.517Z,48.11
2018-08-19T12:19:00.009Z,46.34
2018-08-19T12:21:30.918Z,44.04
2018-08-19T12:24:14.685Z,42.45
2018-08-19T12:26:43.968Z,41.19
2018-08-19T12:29:12.890Z,40.55
2018-08-19T12:31:42.072Z,39.68
2018-08-19T12:34:11.626Z,39.54
2018-08-19T12:36:40.658Z,38.57
2018-08-19T12:39:10.755Z,38.32
2018-08-19T12:41:45.520Z,38.11
2018-08-19T12:44:14.445Z,37.50
2018-08-19T12:46:58.985Z,37.33
2018-08-19T12:49:28.906Z,37.21
2018-08-19T12:51:58.795Z,37.34
2018-08-19T12:54:27.854Z,36.92
2018-08-19T12:56:58.043Z,36.83
2018-08-19T12:59:27.023Z,36.29
2018-08-19T13:01:55.867Z,35.88
2018-08-19T13:04:24.799Z,35.97
2018-08-19T13:07:15.770Z,35.31
2018-08-19T13:09:49.764Z,35.16
2018-08-19T13:12:19.137Z,35.44
2018-08-19T13:14:48.537Z,35.22
2018-08-19T13:17:17.290Z,34.99
2018-08-19T13:19:52.842Z,35.03
2018-08-19T13:22:22.033Z,34.76
2018-08-19T13:24:51.732Z,34.71
2018-08-19T13:27:21.484Z,34.64
2018-08-19T13:29:50.299Z,34.28
2018-08-19T13:32:21.513Z,33.97
2018-08-19T13:34:50.920Z,33.94
2018-08-19T13:37:20.758Z,34.14
2018-08-19T13:39:50.399Z,34.13
2018-08-19T13:42:19.379Z,34.10
2018-08-19T13:44:48.465Z,34.02
2018-08-19T13:47:17.587Z,34.27
2018-08-19T13:49:47.510Z,34.31
2018-08-19T13:52:16.299Z,34.26
2018-08-19T13:55:03.013Z,34.15
2018-08-19T13:57:32.733Z,33.66
2018-08-19T14:00:01.676Z,33.50
2018-08-19T14:02:30.388Z,33.70
2018-08-19T14:04:59.945Z,33.70
2018-08-19T14:07:30.204Z,33.75
2018-08-19T14:09:59.389Z,33.55
2018-08-19T14:12:28.239Z,33.58
2018-08-19T14:14:57.873Z,33.42
2018-08-19T14:17:26.743Z,33.26
2018-08-19T14:19:55.524Z,33.31
2018-08-19T14:22:24.383Z,33.22
2018-08-19T14:24:53.319Z,33.17
2018-08-19T14:27:23.043Z,33.20
2018-08-19T14:29:52.163Z,33.07
2018-08-19T14:32:28.889Z,33.01
2018-08-19T14:34:59.354Z,32.69
2018-08-19T14:37:29.614Z,32.71
2018-08-19T14:39:59.429Z,32.64
2018-08-19T14:42:29.043Z,32.44
2018-08-19T14:44:58.937Z,32.39
2018-08-19T14:47:28.439Z,32.28
2018-08-19T14:49:58.639Z,31.87
2018-08-19T14:52:28.613Z,31.70
2018-08-19T14:54:57.763Z,31.58
2018-08-19T14:57:27.441Z,31.72
2018-08-19T14:59:57.573Z,31.84
2018-08-19T15:02:26.571Z,31.88
2018-08-19T15:04:55.579Z,31.89
2018-08-19T15:07:24.304Z,31.79
2018-08-19T15:09:54.906Z,31.74
2018-08-19T15:12:26.463Z,31.68
2018-08-19T15:15:00.994Z,31.54
2018-08-19T15:17:30.654Z,31.56
2018-08-19T15:19:59.532Z,31.44
2018-08-19T15:22:29.071Z,31.36
2018-08-19T15:24:57.954Z,31.06
2018-08-19T15:27:27.463Z,31.04
2018-08-19T15:29:57.020Z,31.06
2018-08-19T15:32:26.255Z,31.04
2018-08-19T15:34:56.359Z,30.91
2018-08-19T15:37:25.284Z,30.90
2018-08-19T15:39:54.190Z,30.86
2018-08-19T15:42:22.928Z,30.75
2018-08-19T15:44:51.603Z,30.61
2018-08-19T15:47:20.956Z,30.62
2018-08-19T15:49:59.445Z,30.59
2018-08-19T15:52:28.710Z,30.55
2018-08-19T15:55:00.484Z,30.58
2018-08-19T15:57:29.758Z,30.56
2018-08-19T15:59:58.624Z,30.45
2018-08-19T16:02:28.216Z,30.38
2018-08-19T16:04:58.288Z,30.25
2018-08-19T16:07:27.694Z,30.17
2018-08-19T16:09:56.529Z,30.06
2018-08-19T16:12:26.357Z,30.03
2018-08-19T16:14:57.327Z,29.90
2018-08-19T16:17:26.502Z,29.82
2018-08-19T16:19:55.360Z,29.73
2018-08-19T16:22:24.240Z,29.63
2018-08-19T16:24:53.300Z,29.59
2018-08-19T16:27:22.086Z,29.58
2018-08-19T16:29:50.703Z,29.57
2018-08-19T16:32:19.509Z,29.54
2018-08-19T16:34:48.286Z,29.42
2018-08-19T16:37:17.136Z,29.37
2018-08-19T16:39:45.756Z,29.31
2018-08-19T16:42:14.732Z,29.15
2018-08-19T16:44:44.037Z,29.11
2018-08-19T16:47:13.669Z,29.00
2018-08-19T16:49:42.410Z,28.95
2018-08-19T16:52:11.296Z,28.92
2018-08-19T16:54:40.088Z,28.80
2018-08-19T16:57:09.609Z,28.74
2018-08-19T16:59:38.391Z,28.64
2018-08-19T17:02:07.801Z,28.57
2018-08-19T17:04:38.490Z,28.55
2018-08-19T17:07:10.274Z,28.52
2018-08-19T17:09:39.465Z,28.47
2018-08-19T17:12:08.064Z,28.40
2018-08-19T17:14:37.782Z,28.36
2018-08-19T17:17:06.915Z,28.26
2018-08-19T17:19:35.990Z,28.16
2018-08-19T17:22:08.796Z,28.10
2018-08-19T17:24:37.529Z,28.03
2018-08-19T17:27:11.780Z,28.10
2018-08-19T17:29:41.665Z,28.16
2018-08-19T17:32:11.139Z,28.30
2018-08-19T17:34:40.975Z,28.58
2018-08-19T17:37:11.275Z,28.85
2018-08-19T17:39:40.765Z,29.17
2018-08-19T17:42:09.741Z,29.41
2018-08-19T17:44:40.050Z,29.61
2018-08-19T17:47:09.199Z,29.82
2018-08-19T17:49:38.484Z,29.92
2018-08-19T17:52:07.793Z,29.65
2018-08-19T17:54:36.865Z,29.59
2018-08-19T17:57:06.126Z,29.28
2018-08-19T17:59:35.054Z,29.61
2018-08-19T18:02:03.785Z,29.35
2018-08-19T18:04:38.644Z,29.62
2018-08-19T18:07:11.685Z,29.64
2018-08-19T18:09:44.601Z,29.27
2018-08-19T18:12:13.311Z,28.70
2018-08-19T18:14:42.336Z,28.54
2018-08-19T18:17:11.746Z,28.17
2018-08-19T18:19:41.376Z,28.01
2018-08-19T18:22:10.094Z,27.69
2018-08-19T18:24:40.170Z,27.55
2018-08-19T18:27:09.350Z,27.22
2018-08-19T18:29:44.468Z,26.97
2018-08-19T18:32:13.148Z,26.69
2018-08-19T18:34:42.094Z,26.53
2018-08-19T18:37:10.903Z,26.36
2018-08-19T18:39:43.153Z,26.15
2018-08-19T18:42:14.987Z,25.87
2018-08-19T18:44:44.082Z,25.65
2018-08-19T18:47:13.432Z,25.40
2018-08-19T18:49:43.096Z,25.19
2018-08-19T18:52:17.877Z,25.04
2018-08-19T18:54:47.506Z,25.01
2018-08-19T18:57:16.715Z,24.87
2018-08-19T18:59:45.555Z,24.73
2018-08-19T19:02:15.267Z,24.46
2018-08-19T19:04:44.625Z,24.32
2018-08-19T19:07:13.721Z,24.19
2018-08-19T19:09:49.795Z,24.13
2018-08-19T19:12:22.032Z,24.06
2018-08-19T19:14:51.281Z,23.87
2018-08-19T19:17:20.451Z,23.74
2018-08-19T19:19:50.520Z,23.62
2018-08-19T19:22:20.685Z,23.62
2018-08-19T19:24:52.879Z,23.73
2018-08-19T19:27:22.304Z,23.63
2018-08-19T19:29:56.911Z,23.56
2018-08-19T19:32:26.633Z,23.32
2018-08-19T19:34:56.349Z,23.27
2018-08-19T19:37:26.656Z,23.17
2018-08-19T19:40:00.939Z,23.08
2018-08-19T19:42:30.585Z,22.97
2018-08-19T19:45:00.190Z,23.07
2018-08-19T19:47:29.552Z,22.94
2018-08-19T19:49:59.674Z,22.68
2018-08-19T19:52:29.342Z,22.61
2018-08-19T19:54:58.296Z,22.59
2018-08-19T19:57:27.360Z,22.51
2018-08-19T19:59:56.571Z,22.53
2018-08-19T20:02:31.300Z,22.53
2018-08-19T20:05:01.282Z,22.41
2018-08-19T20:07:30.976Z,22.35
2018-08-19T20:10:00.911Z,22.30
2018-08-19T20:12:30.424Z,22.25
2018-08-19T20:15:01.527Z,22.17
2018-08-19T20:17:31.080Z,22.06
2018-08-19T20:20:00.168Z,21.93
2018-08-19T20:22:29.332Z,21.84
2018-08-19T20:24:58.066Z,21.84
2018-08-19T20:27:26.820Z,21.68
2018-08-19T20:29:55.795Z,21.58
2018-08-19T20:32:25.194Z,21.59
2018-08-19T20:34:54.414Z,21.60
2018-08-19T20:37:25.229Z,21.54
2018-08-19T20:39:54.726Z,21.51
2018-08-19T20:42:24.052Z,21.52
2018-08-19T20:44:54.082Z,21.48
2018-08-19T20:47:23.979Z,21.43
2018-08-19T20:49:52.640Z,21.42
2018-08-19T20:52:45.263Z,21.42
2018-08-19T20:55:14.925Z,21.22
2018-08-19T20:57:45.222Z,21.05
2018-08-19T21:00:14.203Z,21.08
2018-08-19T21:02:43.229Z,21.10
2018-08-19T21:05:11.950Z,21.02
2018-08-19T21:07:41.926Z,20.89
2018-08-19T21:10:10.700Z,20.73
2018-08-19T21:12:40.188Z,20.72
2018-08-19T21:15:09.550Z,20.65
2018-08-19T21:17:38.780Z,20.47
2018-08-19T21:20:07.673Z,20.43
2018-08-19T21:22:36.921Z,20.48
2018-08-19T21:25:05.845Z,20.38
2018-08-19T21:27:34.497Z,20.34
2018-08-19T21:30:05.086Z,20.35
2018-08-19T21:32:33.814Z,20.33
2018-08-19T21:35:02.551Z,20.32
2018-08-19T21:37:39.335Z,20.25
2018-08-19T21:40:08.350Z,20.19
2018-08-19T21:42:49.682Z,20.21
2018-08-19T21:45:18.516Z,20.05
2018-08-19T21:47:47.430Z,20.12
2018-08-19T21:50:16.867Z,20.12
2018-08-19T21:52:58.676Z,20.21
2018-08-19T21:56:02.419Z,20.17
2018-08-19T21:58:31.044Z,20.13
2018-08-19T22:01:02.159Z,20.02
2018-08-19T22:03:36.147Z,19.92
2018-08-19T22:06:06.351Z,19.91
2018-08-19T22:08:35.130Z,19.88
2018-08-19T22:11:04.230Z,19.82
2018-08-19T22:13:33.652Z,19.76
2018-08-19T22:16:02.312Z,19.76
2018-08-19T22:18:32.072Z,19.79
2018-08-19T22:21:23.251Z,19.80
2018-08-19T22:23:56.570Z,19.80
2018-08-19T22:26:25.201Z,19.78
2018-08-19T22:29:10.323Z,19.81
2018-08-19T22:31:38.994Z,19.73
2018-08-19T22:34:07.895Z,19.74
2018-08-19T22:36:38.125Z,19.70
2018-08-19T22:39:10.985Z,19.71
2018-08-19T22:41:40.074Z,19.69
2018-08-19T22:44:08.886Z,19.67
2018-08-19T22:46:37.636Z,19.65
2018-08-19T22:49:06.454Z,19.63
2018-08-19T22:51:35.461Z,19.61
2018-08-19T22:54:04.109Z,19.55
2018-08-19T22:56:33.105Z,19.62
2018-08-19T22:59:02.040Z,19.60
2018-08-19T23:01:35.827Z,19.42
2018-08-19T23:04:04.755Z,19.44
2018-08-19T23:06:35.009Z,19.33
2018-08-19T23:09:05.841Z,19.27
2018-08-19T23:11:40.139Z,19.25
2018-08-19T23:14:20.779Z,19.19
2018-08-19T23:16:50.365Z,19.10
2018-08-19T23:19:20.152Z,19.06
2018-08-19T23:21:48.895Z,18.96
2018-08-19T23:24:17.706Z,18.95
2018-08-19T23:26:46.920Z,18.83
2018-08-19T23:29:16.477Z,18.88
2018-08-19T23:31:45.786Z,18.81
2018-08-19T23:34:14.966Z,18.80
2018-08-19T23:36:44.930Z,18.82
2018-08-19T23:39:13.569Z,18.73
2018-08-19T23:41:43.191Z,18.68
2018-08-19T23:44:13.414Z,18.68
2018-08-19T23:46:42.952Z,18.66
2018-08-19T23:49:12.066Z,18.58
2018-08-19T23:51:40.826Z,18.52
2018-08-19T23:54:09.555Z,18.39
2018-08-19T23:56:40.155Z,18.34
2018-08-19T23:59:09.041Z,18.33
